createdAt,value
2023-03-17T00:02:03.395Z,-1.90
2023-03-17T00:04:32.431Z,-1.80
2023-03-17T00:07:01.515Z,-1.80
2023-03-17T00:09:32.252Z,-1.90
2023-03-17T00:12:01.584Z,-2.00
2023-03-17T00:14:31.332Z,-1.90
2023-03-17T00:17:00.622Z,-1.20
2023-03-17T00:19:32.676Z,-2.10
2023-03-17T00:22:03.176Z,-2.00
2023-03-17T00:24:33.991Z,-2.00
2023-03-17T00:27:03.223Z,-1.20
2023-03-17T00:29:32.489Z,-1.60
2023-03-17T00:32:01.629Z,-2.20
2023-03-17T00:34:30.628Z,-2.20
2023-03-17T00:36:59.623Z,-2.20
2023-03-17T00:39:39.630Z,-2.10
2023-03-17T00:42:12.607Z,-2.30
2023-03-17T00:44:44.702Z,-2.40
2023-03-17T00:47:14.964Z,-2.30
2023-03-17T00:49:44.380Z,-2.20
2023-03-17T00:52:13.758Z,-2.30
2023-03-17T00:54:45.034Z,-2.30
2023-03-17T00:57:14.406Z,-2.20
2023-03-17T00:59:44.331Z,-2.20
2023-03-17T01:02:14.585Z,-2.20
2023-03-17T01:04:49.949Z,-2.10
2023-03-17T01:07:22.959Z,-2.10
2023-03-17T01:09:54.600Z,-2.00
2023-03-17T01:12:23.903Z,-2.10
2023-03-17T01:14:53.129Z,-2.10
2023-03-17T01:17:23.309Z,-2.20
2023-03-17T01:19:53.071Z,-2.10
2023-03-17T01:22:22.517Z,-2.20
2023-03-17T01:24:54.608Z,-2.10
2023-03-17T01:27:23.534Z,-2.10
2023-03-17T01:29:54.924Z,-2.10
2023-03-17T01:32:24.195Z,-2.20
2023-03-17T01:34:53.649Z,-2.10
2023-03-17T01:37:23.237Z,-2.20
2023-03-17T01:39:54.305Z,-2.10
2023-03-17T01:42:23.347Z,-2.10
2023-03-17T01:44:59.981Z,-2.00
2023-03-17T01:47:32.251Z,-2.10
2023-03-17T01:50:05.915Z,-2.10
2023-03-17T01:52:36.206Z,-2.00
2023-03-17T01:55:10.779Z,-2.10
2023-03-17T07:00:47.495Z,2.00
2023-03-17T07:03:17.357Z,2.20
2023-03-17T07:05:47.240Z,2.30
2023-03-17T07:08:16.286Z,2.40
2023-03-17T07:10:46.130Z,2.60
2023-03-17T07:13:15.110Z,2.70
2023-03-17T07:15:47.274Z,2.80
2023-03-17T07:18:17.291Z,2.80
2023-03-17T07:20:47.101Z,2.80
2023-03-17T07:23:17.868Z,2.90
2023-03-17T07:25:49.265Z,2.90
2023-03-17T07:28:19.306Z,2.90
2023-03-17T07:30:53.296Z,3.00
2023-03-17T07:33:23.197Z,3.00
2023-03-17T07:35:54.558Z,3.20
2023-03-17T07:38:23.737Z,3.50
2023-03-17T07:40:53.746Z,3.50
2023-03-17T07:43:23.842Z,3.60
2023-03-17T07:45:54.505Z,3.60
2023-03-17T07:48:23.846Z,3.50
2023-03-17T07:50:52.901Z,3.80
2023-03-17T07:53:22.347Z,3.90
2023-03-17T07:55:51.282Z,4.30
2023-03-17T07:58:20.567Z,4.40
2023-03-17T08:00:50.506Z,4.60
2023-03-17T08:03:21.367Z,5.00
2023-03-17T08:05:53.802Z,5.50
2023-03-17T08:08:23.361Z,5.30
2023-03-17T08:10:52.446Z,5.60
2023-03-17T08:13:22.092Z,6.40
2023-03-17T08:15:51.292Z,6.80
2023-03-17T08:18:21.856Z,6.70
2023-03-17T08:20:52.056Z,7.00
2023-03-17T08:23:22.106Z,7.00
2023-03-17T08:25:51.300Z,6.70
2023-03-17T08:28:20.486Z,6.50
2023-03-17T08:30:50.734Z,6.90
2023-03-17T08:33:22.200Z,6.60
2023-03-17T08:35:51.523Z,6.60
2023-03-17T08:38:20.859Z,6.70
2023-03-17T08:40:51.213Z,7.20
2023-03-17T08:43:20.578Z,7.20
2023-03-17T08:45:50.062Z,7.60
2023-03-17T08:48:19.298Z,8.00
2023-03-17T08:50:50.208Z,8.30
2023-03-17T08:53:20.106Z,8.60
2023-03-17T08:55:50.380Z,9.10
2023-03-17T08:58:20.640Z,9.70
2023-03-17T09:00:50.244Z,10.40
2023-03-17T09:03:19.317Z,10.30
2023-03-17T09:05:51.577Z,9.90
2023-03-17T09:08:21.724Z,9.80
2023-03-17T09:10:52.147Z,9.90
2023-03-17T09:13:21.280Z,9.30
2023-03-17T09:15:51.981Z,9.40
2023-03-17T09:18:22.215Z,9.10
2023-03-17T09:20:53.068Z,8.90
2023-03-17T09:23:23.827Z,9.10
2023-03-17T09:25:54.071Z,9.70
2023-03-17T09:28:23.980Z,9.30
2023-03-17T09:30:53.331Z,9.30
2023-03-17T09:33:22.623Z,9.70
2023-03-17T09:35:57.814Z,10.60
2023-03-17T09:38:28.230Z,11.10
2023-03-17T09:41:02.316Z,10.90
2023-03-17T09:43:38.855Z,12.10
2023-03-17T09:46:22.073Z,12.80
2023-03-17T09:48:59.492Z,13.10
2023-03-17T09:51:32.093Z,12.90
2023-03-17T09:54:04.333Z,12.30
2023-03-17T09:56:35.847Z,12.40
2023-03-17T09:59:08.087Z,13.10
2023-03-17T10:01:39.583Z,12.20
2023-03-17T10:04:10.821Z,13.30
2023-03-17T10:06:44.626Z,14.80
2023-03-17T10:09:26.540Z,14.20
2023-03-17T10:12:04.181Z,14.00
2023-03-17T10:14:44.079Z,13.70
2023-03-17T10:17:19.194Z,14.00
2023-03-17T10:19:57.549Z,14.10
2023-03-17T10:22:33.312Z,13.60
2023-03-17T10:25:07.146Z,13.60
2023-03-17T10:27:40.203Z,13.70
2023-03-17T10:30:16.848Z,13.00
2023-03-17T10:32:47.125Z,12.70
2023-03-17T10:35:18.616Z,12.60
2023-03-17T10:37:54.896Z,12.70
2023-03-17T10:40:31.213Z,12.70
2023-03-17T10:43:08.320Z,13.00
2023-03-17T10:45:44.023Z,14.60
2023-03-17T10:48:20.786Z,15.00
2023-03-17T10:50:50.101Z,15.60
2023-03-17T10:53:28.566Z,15.20
2023-03-17T10:56:01.658Z,16.10
2023-03-17T10:58:39.658Z,16.40
2023-03-17T11:01:12.857Z,16.60
2023-03-17T11:03:42.417Z,17.00
2023-03-17T11:06:16.466Z,16.90
2023-03-17T11:08:51.679Z,16.60
2023-03-17T11:11:27.811Z,16.10
2023-03-17T11:14:04.601Z,16.40
2023-03-17T11:16:36.839Z,17.50
2023-03-17T11:19:10.865Z,17.50
2023-03-17T11:21:50.240Z,17.10
2023-03-17T11:24:26.918Z,17.20
2023-03-17T11:27:02.797Z,17.10
2023-03-17T11:29:46.108Z,16.10
2023-03-17T11:32:35.772Z,15.20
2023-03-17T11:35:38.710Z,15.20
2023-03-17T11:38:21.783Z,15.50
2023-03-17T11:41:27.651Z,14.70
2023-03-17T11:44:16.974Z,15.20
2023-03-17T11:46:50.152Z,16.20
2023-03-17T11:49:23.527Z,16.50
2023-03-17T11:52:02.802Z,16.20
2023-03-17T11:54:45.399Z,15.80
2023-03-17T11:57:22.363Z,16.50
2023-03-17T11:59:55.875Z,16.80
2023-03-17T12:02:31.127Z,17.00
2023-03-17T12:05:05.764Z,16.90
2023-03-17T12:07:42.772Z,16.90
2023-03-17T12:10:20.046Z,17.20
2023-03-17T12:12:56.437Z,17.50
2023-03-17T12:15:31.968Z,16.80
2023-03-17T12:18:05.365Z,16.20
2023-03-17T12:20:44.096Z,16.50
2023-03-17T12:23:19.554Z,16.50
2023-03-17T12:25:58.379Z,17.10
2023-03-17T12:28:34.523Z,16.60
2023-03-17T12:31:09.005Z,17.00
2023-03-17T12:33:45.515Z,17.40
2023-03-17T12:36:18.462Z,17.00
2023-03-17T12:38:53.206Z,16.50
2023-03-17T12:42:02.443Z,16.60
2023-03-17T12:44:51.582Z,15.90
2023-03-17T12:47:52.778Z,16.80
2023-03-17T12:50:43.294Z,17.20
2023-03-17T12:53:31.911Z,17.40
2023-03-17T12:56:05.437Z,17.60
2023-03-17T12:58:39.001Z,18.00
2023-03-17T13:01:21.081Z,18.90
2023-03-17T13:04:03.158Z,18.40
2023-03-17T13:06:39.964Z,18.20
2023-03-17T13:09:31.605Z,17.60
2023-03-17T13:12:02.745Z,17.30
2023-03-17T13:14:43.292Z,17.90
2023-03-17T13:17:36.409Z,17.90
2023-03-17T13:20:18.322Z,18.00
2023-03-17T13:23:03.889Z,17.80
2023-03-17T13:28:30.121Z,17.70
2023-03-17T13:31:13.245Z,18.10
2023-03-17T13:34:05.290Z,18.20
2023-03-17T13:36:42.325Z,17.10
2023-03-17T13:39:51.470Z,16.70
2023-03-17T13:42:31.858Z,16.70
2023-03-17T13:45:27.087Z,17.30
2023-03-17T13:48:27.638Z,17.50
2023-03-17T13:51:03.994Z,17.70
2023-03-17T13:53:38.143Z,17.10
2023-03-17T13:56:17.330Z,17.00
2023-03-17T13:59:13.853Z,17.00
2023-03-17T14:01:48.121Z,16.70
2023-03-17T14:04:23.925Z,18.00
2023-03-17T14:06:58.123Z,17.30
2023-03-17T14:09:35.313Z,18.30
2023-03-17T14:12:12.993Z,17.70
2023-03-17T14:14:51.348Z,17.40
2023-03-17T14:17:24.715Z,16.40
2023-03-17T14:20:07.468Z,15.90
2023-03-17T14:22:45.505Z,15.70
2023-03-17T14:25:19.837Z,16.10
2023-03-17T14:27:54.320Z,15.80
2023-03-17T14:30:25.908Z,15.60
2023-03-17T14:33:02.038Z,15.10
2023-03-17T14:35:36.317Z,15.70
2023-03-17T14:38:19.411Z,16.40
2023-03-17T14:40:49.691Z,15.70
2023-03-17T14:43:19.604Z,16.40
2023-03-17T14:45:53.033Z,16.30
2023-03-17T14:48:30.869Z,17.40
2023-03-17T14:51:12.141Z,17.70
2023-03-17T14:53:47.127Z,17.20
2023-03-17T14:56:16.758Z,17.60
2023-03-17T14:58:48.603Z,16.60
2023-03-17T15:01:19.816Z,15.70
2023-03-17T15:03:58.026Z,15.60
2023-03-17T15:06:30.037Z,14.70
2023-03-17T15:09:04.708Z,14.00
2023-03-17T15:11:40.751Z,13.70
2023-03-17T15:14:21.343Z,14.00
2023-03-17T15:16:53.660Z,13.70
2023-03-17T15:19:28.677Z,13.70
2023-03-17T15:22:00.723Z,13.40
2023-03-17T15:25:03.664Z,13.10
2023-03-17T15:27:34.130Z,12.40
2023-03-17T15:30:03.731Z,12.00
2023-03-17T15:32:33.277Z,11.80
2023-03-17T15:35:02.533Z,11.60
2023-03-17T15:37:33.356Z,11.30
2023-03-17T15:40:06.300Z,11.20
2023-03-17T15:42:41.077Z,11.10
2023-03-17T15:45:11.336Z,11.10
2023-03-17T15:47:42.556Z,11.10
2023-03-17T15:50:24.660Z,11.00
2023-03-17T15:52:56.584Z,10.90
2023-03-17T15:55:30.289Z,10.90
2023-03-17T15:58:00.826Z,10.80
2023-03-17T16:00:32.435Z,10.80
2023-03-17T16:03:06.833Z,10.60
2023-03-17T16:05:37.785Z,10.50
2023-03-17T16:08:07.196Z,10.30
2023-03-17T16:10:37.906Z,10.20
2023-03-17T16:13:07.131Z,10.10
2023-03-17T16:15:41.373Z,10.00
2023-03-17T16:18:17.218Z,9.90
2023-03-17T16:20:48.058Z,9.80
2023-03-17T16:23:19.534Z,9.70
2023-03-17T16:25:50.668Z,9.60
2023-03-17T16:28:21.969Z,9.50
2023-03-17T16:30:52.197Z,9.40
2023-03-17T16:33:23.999Z,9.30
2023-03-17T16:35:54.132Z,9.30
2023-03-17T16:38:26.032Z,9.20
2023-03-17T16:41:00.223Z,9.20
2023-03-17T16:43:31.677Z,9.10
2023-03-17T16:46:03.578Z,9.00
2023-03-17T16:48:33.330Z,9.00
2023-03-17T16:51:03.539Z,8.90
2023-03-17T16:53:33.793Z,8.80
2023-03-17T16:56:04.542Z,8.80
2023-03-17T16:58:37.268Z,8.70
2023-03-17T17:01:13.133Z,8.60
2023-03-17T17:03:42.852Z,8.60
2023-03-17T17:06:14.852Z,8.50
2023-03-17T17:08:44.820Z,8.50
2023-03-17T17:11:17.476Z,8.40
2023-03-17T17:13:49.661Z,8.40
2023-03-17T17:16:23.681Z,8.40
2023-03-17T17:18:53.281Z,8.40
2023-03-17T17:21:22.963Z,8.40
2023-03-17T17:23:53.177Z,8.20
2023-03-17T17:26:24.719Z,8.20
2023-03-17T17:28:54.257Z,8.10
2023-03-17T17:31:23.581Z,8.10
2023-03-17T17:33:52.630Z,8.00
2023-03-17T17:36:22.462Z,7.90
2023-03-17T17:38:52.410Z,7.90
2023-03-17T17:41:24.026Z,7.80
2023-03-17T17:43:54.325Z,7.80
2023-03-17T17:46:24.747Z,7.70
2023-03-17T17:48:54.626Z,7.80
2023-03-17T17:51:23.807Z,7.80
2023-03-17T17:53:53.723Z,7.70
2023-03-17T17:56:25.061Z,7.70
2023-03-17T17:58:54.469Z,7.60
2023-03-17T18:01:24.058Z,7.50
2023-03-17T18:03:54.387Z,7.50
2023-03-17T18:06:24.155Z,7.40
2023-03-17T18:08:53.601Z,7.30
2023-03-17T18:11:24.872Z,7.40
2023-03-17T18:13:54.244Z,7.30
2023-03-17T18:16:23.113Z,7.20
2023-03-17T18:18:53.022Z,7.10
2023-03-17T18:21:22.876Z,7.10
2023-03-17T18:23:55.726Z,7.00
2023-03-17T18:26:27.533Z,6.80
2023-03-17T18:28:57.116Z,6.70
2023-03-17T18:31:30.233Z,6.70
2023-03-17T18:34:02.320Z,6.70
2023-03-17T18:36:32.477Z,6.60
2023-03-17T18:39:01.798Z,6.50
2023-03-17T18:41:34.787Z,6.40
2023-03-17T18:44:04.286Z,6.40
2023-03-17T18:46:33.478Z,6.40
2023-03-17T18:49:02.739Z,6.40
2023-03-17T18:51:37.405Z,6.30
2023-03-17T18:54:07.582Z,6.20
2023-03-17T18:56:38.551Z,6.20
2023-03-17T18:59:11.242Z,6.30
2023-03-17T19:01:44.263Z,6.20
2023-03-17T19:04:13.926Z,6.10
2023-03-17T19:06:43.549Z,6.00
2023-03-17T19:09:13.818Z,6.00
2023-03-17T19:11:45.466Z,5.90
2023-03-17T19:14:15.682Z,5.90
2023-03-17T19:16:45.456Z,5.90
2023-03-17T19:19:15.554Z,5.80
2023-03-17T19:21:45.142Z,5.80
2023-03-17T19:24:14.788Z,5.70
2023-03-17T19:26:46.528Z,5.70
2023-03-17T19:29:17.255Z,5.60
2023-03-17T19:31:48.582Z,5.60
2023-03-17T19:34:18.349Z,5.50
2023-03-17T19:36:48.199Z,5.60
2023-03-17T19:39:18.745Z,5.60
2023-03-17T19:41:53.186Z,5.50
2023-03-17T19:44:23.669Z,5.60
2023-03-17T19:46:53.519Z,5.60
2023-03-17T19:49:23.471Z,5.70
2023-03-17T19:51:53.311Z,5.80
2023-03-17T19:54:23.663Z,5.80
2023-03-17T19:57:14.125Z,5.80
2023-03-17T19:59:49.573Z,5.80
2023-03-17T20:02:19.429Z,5.70
2023-03-17T20:04:48.644Z,5.70
2023-03-17T20:07:18.704Z,5.50
2023-03-17T20:09:48.954Z,5.40
2023-03-17T20:12:20.252Z,5.20
2023-03-17T20:14:49.948Z,5.00
2023-03-17T20:17:19.247Z,4.90
2023-03-17T20:19:49.608Z,5.00
2023-03-17T20:22:20.276Z,5.00
2023-03-17T20:24:50.516Z,4.90
2023-03-17T20:27:23.429Z,4.70
2023-03-17T20:29:53.244Z,4.70
2023-03-17T20:32:22.931Z,4.60
2023-03-17T20:34:54.777Z,4.60
2023-03-17T20:37:25.577Z,4.50
2023-03-17T20:39:57.952Z,4.40
2023-03-17T20:42:30.270Z,4.40
2023-03-17T20:45:01.351Z,4.40
2023-03-17T20:47:32.076Z,4.60
2023-03-17T20:50:02.504Z,4.60
2023-03-17T20:52:32.351Z,4.60
2023-03-17T20:55:07.064Z,4.60
2023-03-17T20:57:39.912Z,4.60
2023-03-17T21:00:11.381Z,4.50
2023-03-17T21:02:41.875Z,4.50
2023-03-17T21:05:15.790Z,4.40
2023-03-17T21:07:46.617Z,4.40
2023-03-17T21:10:17.009Z,4.30
2023-03-17T21:12:49.074Z,4.30
2023-03-17T21:15:19.181Z,4.70
2023-03-17T21:17:48.924Z,4.10
2023-03-17T21:20:19.992Z,4.00
2023-03-17T21:22:49.941Z,3.90
2023-03-17T21:25:19.751Z,3.80
2023-03-17T21:27:51.384Z,3.70
2023-03-17T21:30:21.205Z,3.60
2023-03-17T21:32:51.006Z,3.60
2023-03-17T21:35:20.700Z,3.60
2023-03-17T21:37:54.168Z,3.50
2023-03-17T21:40:24.601Z,3.50
2023-03-17T21:43:03.017Z,3.40
2023-03-17T21:45:34.185Z,3.40
2023-03-17T21:48:05.813Z,3.20
2023-03-17T21:50:36.369Z,3.10
2023-03-17T21:53:06.370Z,3.00
2023-03-17T21:55:35.428Z,3.10
2023-03-17T21:58:06.723Z,3.10
2023-03-17T22:00:45.179Z,2.80
2023-03-17T22:03:15.507Z,2.80
2023-03-17T22:05:44.758Z,2.80
2023-03-17T22:08:13.823Z,2.90
2023-03-17T22:10:43.617Z,2.90
2023-03-17T22:13:14.591Z,2.90
2023-03-17T22:15:44.273Z,2.90
2023-03-17T22:18:13.789Z,2.90
2023-03-17T22:20:45.300Z,2.90
2023-03-17T22:23:14.792Z,2.90
2023-03-17T22:25:44.296Z,2.80
2023-03-17T22:28:15.511Z,2.80
2023-03-17T22:30:45.169Z,2.80
2023-03-17T22:33:14.460Z,2.80
2023-03-17T22:35:44.018Z,2.80
2023-03-17T22:38:14.310Z,2.90
2023-03-17T22:40:43.999Z,2.80
2023-03-17T22:43:15.725Z,2.70
2023-03-17T22:45:45.382Z,2.70
2023-03-17T22:48:15.163Z,2.70
2023-03-17T22:50:44.828Z,2.60
2023-03-17T22:53:14.386Z,2.50
2023-03-17T22:55:44.275Z,2.40
2023-03-17T22:58:15.010Z,2.30
2023-03-17T23:00:45.854Z,2.40
2023-03-17T23:03:15.117Z,2.40
2023-03-17T23:05:47.628Z,2.40
2023-03-17T23:08:17.460Z,2.50
2023-03-17T23:10:48.219Z,2.50
2023-03-17T23:13:20.358Z,2.60
2023-03-17T23:15:50.667Z,2.50
2023-03-17T23:18:19.634Z,2.50
2023-03-17T23:20:49.445Z,2.60
2023-03-17T23:23:20.338Z,2.60
2023-03-17T23:25:49.620Z,2.50
2023-03-17T23:28:21.214Z,2.50
2023-03-17T23:30:51.065Z,2.50
2023-03-17T23:33:22.375Z,2.40
2023-03-17T23:35:52.296Z,2.40
2023-03-17T23:38:22.530Z,2.20
2023-03-17T23:40:52.182Z,2.20
2023-03-17T23:43:23.500Z,2.20
2023-03-17T23:45:54.533Z,2.20
2023-03-17T23:48:24.175Z,2.20
2023-03-17T23:50:54.756Z,2.20
2023-03-17T23:53:25.748Z,2.10
2023-03-17T23:55:55.653Z,2.00
2023-03-17T23:58:26.731Z,2.00
